Huvudsida
METAR-TAF:

METAR-TAF

Flygplatser :

Harbin Taiping International Airport

Harbin, Kina

latitud: 45-45N, longitud: 126-46E, höjd: 143 m

Aktuellt väderrapport

Denna rapport gjordes för 37 minuter sedan, klockan 23:00 UTC
Vind 10 kt från syd/sydväst
Temperatur 27°C
Fuktighet 84%
Tryck 1006 hPa
Sikt: 3000 m
fuktdis

METAR: ZYHB 222300Z 20005MPS 3000 BR NSC 27/24 Q1006 NOSIG

Tid: 07:37 (23:37 UTC)

Väderprognos

Denna rapport gjordes för 4 timmar och 18 minuter sedan, klockan 19:19 UTC
Prognos gäller från 23 kl. 00 UTC till 23 kl. 24 UTC
Vind 8 kt från väst/sydväst
Sikt: 6000 m
Spridda moln på en höjd av 3300 ft
Temporärt
från 23 kl. 03 UTC till 23 kl. 09 UTC
Spridda moln på en höjd av 2300 ft, Cumulonimbus.
Brutna moln på en höjd av 2600 ft
åska, regn

TAF: ZYHB 221919Z 2300/2324 24004MPS 6000 SCT033 TX33/2306Z TN25/2321Z TEMPO 2303/2309 TSRA SCT023CB BKN026

Aktuella väderrapporter och prognoser från 4000 flygplatser (METAR- och TAF-rapporter).

De tillgängliga stationerna syns som gula och röda prickar på kartan.

För musen över prickarna för att se namnen på stationerna.

Klicka sedan för att få väderrapporter och prognoser.

För att ändra kartan: Klicka på de gröna knapparna med ett svart kors på för att zooma in; den gröna knappen med ett streck på för att zooma ut; eller på de gröna pilarna för angränsande kartor.


METAR-TAF: